createdAt,value
2022-08-03T00:01:19.576Z,4.60
2022-08-03T00:03:46.042Z,3.13
2022-08-03T00:06:12.839Z,3.60
2022-08-03T00:08:40.317Z,3.75
2022-08-03T00:11:06.745Z,4.20
2022-08-03T00:13:33.091Z,4.10
2022-08-03T00:15:59.422Z,4.18
2022-08-03T00:18:26.453Z,4.30
2022-08-03T00:20:52.957Z,4.00
2022-08-03T00:23:19.432Z,3.45
2022-08-03T00:25:45.770Z,4.25
2022-08-03T00:28:12.098Z,4.22
2022-08-03T00:30:38.384Z,3.35
2022-08-03T00:35:51.068Z,3.45
2022-08-03T00:38:17.614Z,4.40
2022-08-03T00:40:44.129Z,3.60
2022-08-03T00:43:10.485Z,4.38
2022-08-03T00:45:36.775Z,3.95
2022-08-03T00:48:05.289Z,4.95
2022-08-03T00:50:31.620Z,4.95
2022-08-03T00:52:58.000Z,4.95
2022-08-03T00:55:24.344Z,5.47
2022-08-03T00:57:50.671Z,4.22
2022-08-03T01:00:16.995Z,4.32
2022-08-03T01:02:43.442Z,3.60
2022-08-03T01:05:09.679Z,4.55
2022-08-03T01:07:36.132Z,3.75
2022-08-03T01:10:02.601Z,4.53
2022-08-03T01:12:28.924Z,4.68
2022-08-03T01:14:55.230Z,4.93
2022-08-03T01:17:21.564Z,4.25
2022-08-03T01:19:47.794Z,3.65
2022-08-03T01:22:14.544Z,4.60
2022-08-03T01:24:41.010Z,3.88
2022-08-03T01:27:07.318Z,4.95
2022-08-03T01:29:33.631Z,4.18
2022-08-03T01:32:53.660Z,4.30
2022-08-03T01:34:46.137Z,4.15
2022-08-03T01:37:12.475Z,4.95
2022-08-03T01:39:38.780Z,6.00
2022-08-03T01:42:05.109Z,3.42
2022-08-03T01:44:34.002Z,4.07
2022-08-03T01:47:00.317Z,4.45
2022-08-03T01:49:26.825Z,4.32
2022-08-03T01:52:03.550Z,4.22
2022-08-03T01:54:31.669Z,3.67
2022-08-03T01:56:57.918Z,4.28
2022-08-03T01:59:24.234Z,4.07
2022-08-03T02:02:15.355Z,4.47
2022-08-03T02:04:37.097Z,3.70
2022-08-03T02:07:03.647Z,4.03
2022-08-03T02:09:30.026Z,4.85
2022-08-03T02:11:56.562Z,4.47
2022-08-03T02:14:22.904Z,3.13
2022-08-03T02:16:49.272Z,3.88
2022-08-03T02:19:15.722Z,4.30
2022-08-03T02:21:55.836Z,4.05
2022-08-03T02:24:26.964Z,5.05
2022-08-03T02:26:53.245Z,4.90
2022-08-03T02:29:19.653Z,4.55
2022-08-03T02:31:46.241Z,3.25
2022-08-03T02:34:12.532Z,3.70
2022-08-03T02:36:38.870Z,3.30
2022-08-03T02:39:05.178Z,4.68
2022-08-03T02:41:31.615Z,4.45
2022-08-03T02:44:07.107Z,3.92
2022-08-03T02:46:33.880Z,3.20
2022-08-03T02:49:00.389Z,3.47
2022-08-03T02:51:46.752Z,3.03
2022-08-03T02:54:13.079Z,4.95
2022-08-03T02:56:39.517Z,3.67
2022-08-03T02:59:05.835Z,4.13
2022-08-03T03:01:32.165Z,4.05
2022-08-03T03:03:58.509Z,5.03
2022-08-03T03:06:24.827Z,4.63
2022-08-03T03:08:59.615Z,3.65
2022-08-03T03:11:26.290Z,4.28
2022-08-03T03:13:52.622Z,4.63
2022-08-03T03:16:19.081Z,4.60
2022-08-03T03:18:45.416Z,3.80
2022-08-03T03:21:11.767Z,3.80
2022-08-03T03:23:38.072Z,3.45
2022-08-03T03:26:04.416Z,4.60
2022-08-03T03:28:31.238Z,4.43
2022-08-03T03:30:57.585Z,3.60
2022-08-03T03:33:23.885Z,3.60
2022-08-03T03:35:51.370Z,4.35
2022-08-03T03:38:17.697Z,4.00
2022-08-03T03:40:44.048Z,3.95
2022-08-03T03:43:10.361Z,4.05
2022-08-03T03:45:36.875Z,4.03
2022-08-03T03:48:03.213Z,3.78
2022-08-03T03:50:29.566Z,4.82
2022-08-03T03:52:56.005Z,4.38
2022-08-03T03:55:22.476Z,4.82
2022-08-03T03:57:48.753Z,4.25
2022-08-03T04:00:15.310Z,4.10
2022-08-03T04:02:41.642Z,5.03
2022-08-03T04:05:08.139Z,5.15
2022-08-03T04:07:34.358Z,4.95
2022-08-03T04:10:01.016Z,5.47
2022-08-03T04:12:49.904Z,4.40
2022-08-03T04:15:17.104Z,4.47
2022-08-03T04:17:43.486Z,4.35
2022-08-03T04:20:09.924Z,4.53
2022-08-03T04:22:36.203Z,4.38
2022-08-03T04:25:02.758Z,4.40
2022-08-03T04:27:29.046Z,4.30
2022-08-03T04:29:55.424Z,4.32
2022-08-03T04:32:21.757Z,4.57
2022-08-03T04:34:48.003Z,5.18
2022-08-03T04:37:14.251Z,4.43
2022-08-03T04:39:40.571Z,5.13
2022-08-03T04:42:08.088Z,5.07
2022-08-03T04:44:35.155Z,4.97
2022-08-03T04:47:01.453Z,5.18
2022-08-03T04:49:27.840Z,4.78
2022-08-03T04:51:54.137Z,4.55
2022-08-03T04:54:20.612Z,4.97
2022-08-03T04:56:46.927Z,5.13
2022-08-03T04:59:13.244Z,4.93
2022-08-03T05:01:39.641Z,4.45
2022-08-03T05:04:06.038Z,5.10
2022-08-03T05:06:32.513Z,4.93
2022-08-03T05:08:58.860Z,5.65
2022-08-03T05:11:25.430Z,4.78
2022-08-03T05:13:51.764Z,5.18
2022-08-03T05:16:18.039Z,4.22
2022-08-03T05:18:44.316Z,4.65
2022-08-03T05:21:10.598Z,5.05
2022-08-03T05:23:36.962Z,3.90
2022-08-03T05:26:03.406Z,4.50
2022-08-03T05:28:29.726Z,4.72
2022-08-03T05:30:56.043Z,4.15
2022-08-03T05:33:22.331Z,4.47
2022-08-03T05:36:01.063Z,4.47
2022-08-03T05:38:34.136Z,3.95
2022-08-03T05:41:20.990Z,5.07
2022-08-03T05:43:47.950Z,4.53
2022-08-03T05:46:14.399Z,5.10
2022-08-03T05:48:40.785Z,4.38
2022-08-03T05:51:07.122Z,5.20
2022-08-03T05:53:33.508Z,5.47
2022-08-03T05:56:03.605Z,5.65
2022-08-03T05:58:41.987Z,4.68
2022-08-03T06:01:08.447Z,4.57
2022-08-03T06:03:34.880Z,4.55
2022-08-03T06:06:01.333Z,5.38
2022-08-03T06:08:27.638Z,4.30
2022-08-03T06:10:53.947Z,4.78
2022-08-03T06:13:20.584Z,4.75
2022-08-03T06:15:47.149Z,4.10
2022-08-03T06:18:13.615Z,4.97
2022-08-03T06:20:40.056Z,4.47
2022-08-03T06:23:06.340Z,4.32
2022-08-03T06:25:33.783Z,4.65
2022-08-03T06:28:00.242Z,3.42
2022-08-03T06:30:26.621Z,3.67
2022-08-03T06:32:52.974Z,3.47
2022-08-03T06:35:19.239Z,3.45
2022-08-03T06:37:45.545Z,3.30
2022-08-03T06:40:13.902Z,4.45
2022-08-03T06:42:40.402Z,3.35
2022-08-03T06:45:06.707Z,3.00
2022-08-03T06:47:32.968Z,4.60
2022-08-03T06:50:12.989Z,3.33
2022-08-03T06:52:43.771Z,2.90
2022-08-03T06:55:10.550Z,6.55
2022-08-03T06:57:37.198Z,3.97
2022-08-03T07:00:09.554Z,3.40
2022-08-03T07:02:38.048Z,2.70
2022-08-03T07:05:05.409Z,3.40
2022-08-03T07:07:31.716Z,2.97
2022-08-03T07:09:58.459Z,3.65
2022-08-03T07:12:25.527Z,3.08
2022-08-03T07:14:53.110Z,3.65
2022-08-03T07:17:20.910Z,2.60
2022-08-03T07:19:47.260Z,3.17
2022-08-03T07:22:13.548Z,2.72
2022-08-03T07:24:40.173Z,3.28
2022-08-03T07:27:06.488Z,3.03
2022-08-03T07:29:34.731Z,3.10
2022-08-03T07:32:01.094Z,3.20
2022-08-03T07:34:27.392Z,2.85
2022-08-03T07:36:53.724Z,2.63
2022-08-03T07:39:20.054Z,2.17
2022-08-03T07:41:46.478Z,3.33
2022-08-03T07:44:12.837Z,3.50
2022-08-03T07:46:39.072Z,1.95
2022-08-03T07:49:05.477Z,2.65
2022-08-03T07:51:31.841Z,1.90
2022-08-03T07:53:58.271Z,2.50
2022-08-03T07:56:24.629Z,2.67
2022-08-03T07:58:50.975Z,2.53
2022-08-03T08:01:17.490Z,2.10
2022-08-03T08:03:53.210Z,2.28
2022-08-03T08:06:19.898Z,2.60
2022-08-03T08:08:46.411Z,2.10
2022-08-03T08:11:12.764Z,3.58
2022-08-03T08:13:39.278Z,2.10
2022-08-03T08:16:05.647Z,1.70
2022-08-03T08:18:32.029Z,2.40
2022-08-03T08:20:58.350Z,2.40
2022-08-03T08:23:42.182Z,1.65
2022-08-03T08:26:10.054Z,1.70
2022-08-03T08:28:36.334Z,2.78
2022-08-03T08:31:02.653Z,2.50
2022-08-03T08:33:42.190Z,2.40
2022-08-03T08:36:15.780Z,2.22
2022-08-03T08:38:42.133Z,2.85
2022-08-03T08:41:08.441Z,2.28
2022-08-03T08:43:34.782Z,2.10
2022-08-03T08:46:01.082Z,3.22
2022-08-03T08:48:27.336Z,2.25
2022-08-03T08:50:53.674Z,2.03
2022-08-03T08:53:26.757Z,2.08
2022-08-03T08:55:58.642Z,1.42
2022-08-03T08:58:26.159Z,1.95
2022-08-03T09:00:52.750Z,2.60
2022-08-03T09:03:22.664Z,2.25
2022-08-03T09:05:56.947Z,2.13
2022-08-03T09:08:23.253Z,1.88
2022-08-03T09:10:49.514Z,2.60
2022-08-03T09:13:15.845Z,2.75
2022-08-03T09:15:42.131Z,2.50
2022-08-03T09:18:26.146Z,2.17
2022-08-03T09:20:56.817Z,2.83
2022-08-03T09:23:51.703Z,2.72
2022-08-03T09:26:09.481Z,2.00
2022-08-03T09:29:00.737Z,1.95
2022-08-03T09:31:21.919Z,1.77
2022-08-03T09:33:48.370Z,2.28
2022-08-03T09:36:14.911Z,2.35
2022-08-03T09:38:41.267Z,1.90
2022-08-03T09:41:07.711Z,2.00
2022-08-03T09:43:34.033Z,1.65
2022-08-03T09:46:00.287Z,2.50
2022-08-03T09:48:26.609Z,1.67
2022-08-03T09:50:58.822Z,2.47
2022-08-03T09:53:38.910Z,2.05
2022-08-03T09:56:35.605Z,2.20
2022-08-03T09:59:02.901Z,2.10
2022-08-03T10:01:29.211Z,3.03
2022-08-03T10:04:04.011Z,1.80
2022-08-03T10:06:30.810Z,2.15
2022-08-03T10:08:57.083Z,1.77
2022-08-03T10:11:23.395Z,1.90
2022-08-03T10:13:49.773Z,2.88
2022-08-03T10:16:22.183Z,2.00
2022-08-03T10:18:51.412Z,2.70
2022-08-03T10:21:17.656Z,2.20
2022-08-03T10:23:44.109Z,1.80
2022-08-03T10:26:10.380Z,2.22
2022-08-03T10:28:40.238Z,1.60
2022-08-03T10:31:09.233Z,1.70
2022-08-03T10:33:49.472Z,1.98
2022-08-03T10:36:18.541Z,2.30
2022-08-03T10:38:44.795Z,2.20
2022-08-03T10:41:11.010Z,2.50
2022-08-03T10:43:37.312Z,2.50
2022-08-03T10:46:03.565Z,1.58
2022-08-03T10:48:29.829Z,2.22
2022-08-03T10:50:56.056Z,2.03
2022-08-03T10:53:22.312Z,2.42
2022-08-03T10:55:48.550Z,2.63
2022-08-03T10:58:14.986Z,2.53
2022-08-03T11:00:57.025Z,2.10
2022-08-03T11:03:23.380Z,2.20
2022-08-03T11:05:49.664Z,2.35
2022-08-03T11:08:15.957Z,2.05
2022-08-03T11:10:42.213Z,1.48
2022-08-03T11:13:08.434Z,1.95
2022-08-03T11:15:34.694Z,1.92
2022-08-03T11:18:00.965Z,1.45
2022-08-03T11:20:27.715Z,1.63
2022-08-03T11:22:53.944Z,1.85
2022-08-03T11:25:54.249Z,1.75
2022-08-03T11:28:06.465Z,2.00
2022-08-03T11:30:33.057Z,1.80
2022-08-03T11:32:59.334Z,1.60
2022-08-03T11:35:25.580Z,1.80
2022-08-03T11:38:03.083Z,1.60
2022-08-03T11:40:31.662Z,1.77
2022-08-03T11:42:57.910Z,1.60
2022-08-03T11:45:24.185Z,2.55
2022-08-03T11:47:51.471Z,2.42
2022-08-03T11:50:17.911Z,1.77
2022-08-03T11:52:44.152Z,1.92
2022-08-03T11:55:10.390Z,1.80
2022-08-03T11:59:01.746Z,1.75
2022-08-03T12:00:22.918Z,2.25
2022-08-03T12:02:49.200Z,2.05
2022-08-03T12:05:15.550Z,1.77
2022-08-03T12:08:03.032Z,2.22
2022-08-03T12:10:28.255Z,2.13
2022-08-03T12:12:55.161Z,2.10
2022-08-03T12:15:21.410Z,2.22
2022-08-03T12:17:47.685Z,1.88
2022-08-03T12:20:13.935Z,1.77
2022-08-03T12:22:40.178Z,2.15
2022-08-03T12:25:06.423Z,1.65
2022-08-03T12:27:32.628Z,2.70
2022-08-03T12:29:59.255Z,1.00
2022-08-03T12:32:25.638Z,1.77
2022-08-03T12:34:51.905Z,2.20
2022-08-03T12:37:22.518Z,1.55
2022-08-03T12:40:01.722Z,1.50
2022-08-03T12:42:31.836Z,2.25
2022-08-03T12:44:58.155Z,1.40
2022-08-03T12:47:24.452Z,1.88
2022-08-03T12:49:50.881Z,1.70
2022-08-03T12:52:17.216Z,1.70
2022-08-03T12:54:43.548Z,1.42
2022-08-03T12:57:09.924Z,1.33
2022-08-03T12:59:40.421Z,1.50
2022-08-03T13:02:09.370Z,1.70
2022-08-03T13:04:36.378Z,1.43
2022-08-03T13:07:03.404Z,2.03
2022-08-03T13:09:29.904Z,1.73
2022-08-03T13:12:02.211Z,1.80
2022-08-03T13:14:28.955Z,1.60
2022-08-03T13:16:55.348Z,2.08
2022-08-03T13:19:21.715Z,1.70
2022-08-03T13:22:01.303Z,2.35
2022-08-03T13:24:31.664Z,1.52
2022-08-03T13:26:58.269Z,1.83
2022-08-03T13:29:24.903Z,1.92
2022-08-03T13:31:51.408Z,1.70
2022-08-03T13:34:22.281Z,2.40
2022-08-03T13:39:57.933Z,1.15
2022-08-03T13:42:22.414Z,1.58
2022-08-03T13:44:48.973Z,1.75
2022-08-03T13:47:15.255Z,1.85
2022-08-03T13:49:41.494Z,1.45
2022-08-03T13:52:07.724Z,1.63
2022-08-03T13:54:33.959Z,1.67
2022-08-03T13:58:05.097Z,1.33
2022-08-03T13:59:46.429Z,1.42
2022-08-03T14:02:12.722Z,1.38
2022-08-03T14:04:39.014Z,1.70
2022-08-03T14:07:05.241Z,2.03
2022-08-03T14:09:31.538Z,1.25
2022-08-03T14:12:06.833Z,1.52
2022-08-03T14:14:34.779Z,1.63
2022-08-03T14:17:01.178Z,1.90
2022-08-03T14:19:28.749Z,1.63
2022-08-03T14:22:01.789Z,1.40
2022-08-03T14:24:33.219Z,2.33
2022-08-03T14:27:07.163Z,1.25
2022-08-03T14:29:35.378Z,1.00
2022-08-03T14:32:11.994Z,1.50
2022-08-03T14:34:39.132Z,1.85
2022-08-03T14:37:05.400Z,1.75
2022-08-03T14:39:59.854Z,1.30
2022-08-03T14:42:18.108Z,1.55
2022-08-03T14:44:44.366Z,1.92
2022-08-03T14:47:10.612Z,1.70
2022-08-03T14:50:30.779Z,1.48
2022-08-03T14:52:23.177Z,1.80
2022-08-03T14:54:49.441Z,1.63
2022-08-03T14:57:15.677Z,1.02
2022-08-03T14:59:55.936Z,1.35
2022-08-03T15:02:24.078Z,1.52
2022-08-03T15:04:50.833Z,1.95
2022-08-03T15:07:17.202Z,1.88
2022-08-03T15:09:43.521Z,1.55
2022-08-03T15:12:09.753Z,1.50
2022-08-03T15:14:36.007Z,1.33
2022-08-03T15:17:04.194Z,1.58
2022-08-03T15:20:00.929Z,1.25
2022-08-03T15:22:16.625Z,1.52
2022-08-03T15:24:46.887Z,1.38
2022-08-03T15:27:13.084Z,1.42
2022-08-03T15:30:04.916Z,1.30
2022-08-03T15:32:25.568Z,1.58
2022-08-03T15:34:52.647Z,1.23
2022-08-03T15:37:18.878Z,1.63
2022-08-03T15:39:59.125Z,1.55
2022-08-03T15:42:26.477Z,2.40
2022-08-03T15:44:53.755Z,1.48
2022-08-03T15:47:20.954Z,1.88
2022-08-03T15:49:47.507Z,1.52
2022-08-03T15:52:13.753Z,1.60
2022-08-03T15:54:40.189Z,1.67
2022-08-03T15:57:06.548Z,1.52
2022-08-03T15:59:32.824Z,1.60
2022-08-03T16:01:59.108Z,1.42
2022-08-03T16:04:25.378Z,2.28
2022-08-03T16:06:51.629Z,1.48
2022-08-03T16:09:23.775Z,1.38
2022-08-03T16:12:04.073Z,1.50
2022-08-03T16:14:34.719Z,1.55
2022-08-03T16:17:06.842Z,1.35
2022-08-03T16:19:33.472Z,1.40
2022-08-03T16:21:59.950Z,1.40
2022-08-03T16:24:28.058Z,1.67
2022-08-03T16:26:54.530Z,2.90
2022-08-03T16:29:22.688Z,1.48
2022-08-03T16:31:51.326Z,1.70
2022-08-03T16:34:17.850Z,1.70
2022-08-03T16:36:45.362Z,1.80
2022-08-03T16:39:11.684Z,1.73
2022-08-03T16:41:53.622Z,2.15
2022-08-03T16:44:24.228Z,1.63
2022-08-03T16:46:53.373Z,1.73
2022-08-03T16:49:54.781Z,1.42
2022-08-03T16:52:07.121Z,2.25
2022-08-03T16:54:33.544Z,1.65
2022-08-03T16:57:01.083Z,1.77
2022-08-03T16:59:36.357Z,1.50
2022-08-03T17:02:06.688Z,2.22
2022-08-03T17:04:36.297Z,2.08
2022-08-03T17:07:06.762Z,1.83
2022-08-03T17:09:38.717Z,2.45
2022-08-03T17:12:05.277Z,1.90
2022-08-03T17:14:33.470Z,1.80
2022-08-03T17:16:59.736Z,2.13
2022-08-03T17:19:27.792Z,2.28
2022-08-03T17:21:55.456Z,1.85
2022-08-03T17:24:21.772Z,1.75
2022-08-03T17:26:51.739Z,1.90
2022-08-03T17:29:18.325Z,2.28
2022-08-03T17:31:44.613Z,2.38
2022-08-03T17:34:15.797Z,2.00
2022-08-03T17:37:03.412Z,2.05
2022-08-03T17:39:55.815Z,1.90
2022-08-03T17:42:30.405Z,1.90
2022-08-03T17:44:57.884Z,2.53
2022-08-03T17:47:40.976Z,2.40
2022-08-03T17:50:24.855Z,2.08
2022-08-03T17:52:52.271Z,1.88
2022-08-03T17:55:55.979Z,2.22
2022-08-03T17:58:07.357Z,1.75
2022-08-03T18:00:33.630Z,18.77
2022-08-03T18:03:00.865Z,8.15
2022-08-03T18:06:11.860Z,2.33
2022-08-03T18:08:15.736Z,1.75
2022-08-03T18:10:49.781Z,1.92
2022-08-03T18:13:16.397Z,1.77
2022-08-03T18:15:42.645Z,2.08
2022-08-03T18:18:10.851Z,2.22
2022-08-03T18:20:41.739Z,2.38
2022-08-03T18:23:08.735Z,5.13
2022-08-03T18:25:45.227Z,1.80
2022-08-03T18:28:23.962Z,2.83
2022-08-03T18:30:53.936Z,2.13
2022-08-03T18:34:19.087Z,2.13
2022-08-03T18:36:07.533Z,2.50
2022-08-03T18:38:35.426Z,2.60
2022-08-03T18:41:01.826Z,1.70
2022-08-03T18:43:47.567Z,1.80
2022-08-03T18:46:14.326Z,1.92
2022-08-03T18:48:40.577Z,2.58
2022-08-03T18:51:12.352Z,3.45
2022-08-03T18:54:04.075Z,2.00
2022-08-03T18:56:32.623Z,2.55
2022-08-03T18:59:02.245Z,2.30
2022-08-03T19:01:58.350Z,2.92
2022-08-03T19:04:15.255Z,2.28
2022-08-03T19:06:43.262Z,2.17
2022-08-03T19:09:10.389Z,3.13
2022-08-03T19:12:11.001Z,2.13
2022-08-03T19:14:22.889Z,2.28
2022-08-03T19:16:55.084Z,2.58
2022-08-03T19:19:21.299Z,2.08
2022-08-03T19:21:49.231Z,1.90
2022-08-03T19:24:15.749Z,2.28
2022-08-03T19:26:42.102Z,2.88
2022-08-03T19:29:11.372Z,2.63
2022-08-03T19:31:41.695Z,2.58
2022-08-03T19:34:25.564Z,3.65
2022-08-03T19:36:51.863Z,3.20
2022-08-03T19:39:18.194Z,3.28
2022-08-03T19:41:44.941Z,2.83
2022-08-03T19:44:19.803Z,4.13
2022-08-03T19:46:46.571Z,3.65
2022-08-03T19:49:15.006Z,3.25
2022-08-03T19:52:02.966Z,3.00
2022-08-03T19:54:32.320Z,2.33
2022-08-03T19:56:58.691Z,2.75
2022-08-03T19:59:26.421Z,3.30
2022-08-03T20:01:53.068Z,3.35
2022-08-03T20:04:21.272Z,3.53
2022-08-03T20:06:47.718Z,2.58
2022-08-03T20:09:16.366Z,3.60
2022-08-03T20:11:44.954Z,3.35
2022-08-03T20:14:11.611Z,3.67
2022-08-03T20:16:39.607Z,3.83
2022-08-03T20:19:14.369Z,7.43
2022-08-03T20:21:40.722Z,4.70
2022-08-03T20:26:51.790Z,3.22
2022-08-03T20:29:19.651Z,3.53
2022-08-03T20:32:05.913Z,4.18
2022-08-03T20:34:32.714Z,3.90
2022-08-03T20:36:58.918Z,3.60
2022-08-03T20:39:26.261Z,3.78
2022-08-03T20:41:53.718Z,3.78
2022-08-03T20:44:25.715Z,4.95
2022-08-03T20:47:00.306Z,4.50
2022-08-03T20:49:27.079Z,4.30
2022-08-03T20:51:53.697Z,3.97
2022-08-03T20:54:29.705Z,4.05
2022-08-03T20:56:57.588Z,4.70
2022-08-03T20:59:24.238Z,4.35
2022-08-03T21:01:50.476Z,5.40
2022-08-03T21:04:20.865Z,4.22
2022-08-03T21:06:53.165Z,4.30
2022-08-03T21:09:19.883Z,5.38
2022-08-03T21:11:46.440Z,4.22
2022-08-03T21:14:12.757Z,4.10
2022-08-03T21:16:38.982Z,4.22
2022-08-03T21:19:05.249Z,5.65
2022-08-03T21:21:31.504Z,4.03
2022-08-03T21:23:57.752Z,4.88
2022-08-03T21:26:24.002Z,5.05
2022-08-03T21:28:50.257Z,3.97
2022-08-03T21:31:24.206Z,4.07
2022-08-03T21:33:52.065Z,4.53
2022-08-03T21:36:18.321Z,4.32
2022-08-03T21:38:44.541Z,4.13
2022-08-03T21:41:22.015Z,4.47
2022-08-03T21:43:48.243Z,4.38
2022-08-03T21:46:14.501Z,4.35
2022-08-03T21:48:40.727Z,5.38
2022-08-03T21:51:07.064Z,4.38
2022-08-03T21:54:02.962Z,5.03
2022-08-03T21:56:19.555Z,4.68
2022-08-03T21:58:45.919Z,5.28
2022-08-03T22:01:17.420Z,5.97
2022-08-03T22:03:53.185Z,5.10
2022-08-03T22:06:20.651Z,5.38
2022-08-03T22:08:48.726Z,5.78
2022-08-03T22:11:14.989Z,4.43
2022-08-03T22:13:42.989Z,5.82
2022-08-03T22:16:10.776Z,4.93
2022-08-03T22:18:37.015Z,5.85
2022-08-03T22:21:03.288Z,4.38
2022-08-03T22:23:29.883Z,5.35
2022-08-03T22:25:56.125Z,5.95
2022-08-03T22:28:22.342Z,5.72
2022-08-03T22:30:48.793Z,6.85
2022-08-03T22:33:15.015Z,6.30
2022-08-03T22:35:47.416Z,5.00
2022-08-03T22:38:14.332Z,7.03
2022-08-03T22:40:40.564Z,6.82
2022-08-03T22:43:06.789Z,7.70
2022-08-03T22:46:06.424Z,7.75
2022-08-03T22:48:19.229Z,8.20
2022-08-03T22:50:45.475Z,9.15
2022-08-03T22:53:11.762Z,8.98
2022-08-03T22:55:38.021Z,6.38
2022-08-03T22:58:04.254Z,6.85
2022-08-03T23:00:30.537Z,7.50
2022-08-03T23:02:56.808Z,6.85
2022-08-03T23:06:02.460Z,6.35
2022-08-03T23:08:09.324Z,5.57
2022-08-03T23:10:35.552Z,5.43
2022-08-03T23:13:01.765Z,5.32
2022-08-03T23:15:28.011Z,6.95
2022-08-03T23:17:58.166Z,6.50
2022-08-03T23:20:26.609Z,7.15
2022-08-03T23:22:53.159Z,7.90
2022-08-03T23:25:19.894Z,5.93
2022-08-03T23:27:46.111Z,6.00
2022-08-03T23:30:12.340Z,6.75
2022-08-03T23:32:38.557Z,5.57
2022-08-03T23:35:04.800Z,5.43
2022-08-03T23:37:31.045Z,5.60
2022-08-03T23:39:57.305Z,5.70
2022-08-03T23:42:23.546Z,5.93
2022-08-03T23:44:49.795Z,6.50
2022-08-03T23:47:15.999Z,4.85
2022-08-03T23:49:42.245Z,5.40
2022-08-03T23:52:08.463Z,5.13
2022-08-03T23:54:34.700Z,5.47
2022-08-03T23:57:00.919Z,4.93
2022-08-03T23:59:27.173Z,5.10
